Terminal Aerodrome Forecast
Issued by NWS

Current Version | Previous Version | Text Only | Print | Product List | Glossary On
Versions: 1 2 3 4 5 6 7 8 9 10 11 12 13
000
FTUS42 KILM 260520
TAFCRE
TAF
KCRE 260520Z 2606/2706 14008KT P6SM SKC
     FM260900 14006KT P6SM SCT015 BKN030
      TEMPO 2609/2611 3SM BR SCT007 BKN015
     FM261200 16007KT P6SM SCT025 BKN050
     FM261700 16010G18KT P6SM FEW050 SCT120
     FM270200 19011KT P6SM SCT100=

USA.gov is the U.S. government's official web portal to all federal, state and local government web resources and services.